Edwall, Washington
Current Conditions -  °F | °C
As of 11:08 PM on Wednesday 22 Oct 2014 (Local Time) from KSKA Reporting Station
Overcast Overcast  
Wind Chill: 50°   Ceiling: 5000
Heat Index: 50°   Visibility: 10mi
Dew Point: 46°   Wind: 13mph
Humidity: 87%   Direction: 160°SSE
Pressure: 29.75"   Gusts: NA
Location:  47.5°N, 117.95°W
Report Text: KSKA 230608Z AUTO 16011KT 10SM OVC050 10/08 A2975 RMK AO2
Loading
Personal Weather Stations






























Interactive Weather Map
Tropical Storm Tracking
New forecast layout! Learn more

10-Day Weather Forecast

Advertisements
Track Severe Weather on mobile